Terminal Aerodrome Forecast
Issued by NWS

Home | Current Version | Previous Version | Text Only | Print | Product List | Glossary On
Versions: 1 2 3 4 5 6 7 8 9 10 11 12 13 14 15 16 17 18 19 20 21 22 23 24
000
FTUS43 KGLD 262328
TAFMCK
TAF
KMCK 262328Z 2700/2724 12010KT P6SM SCT050 BKN200
     FM270300 11010KT P6SM -SHRA VCTS OVC090CB
     FM270600 10010KT P6SM OVC080
     FM271000 05008KT P6SM VCTS BKN015CB
     FM271300 03006KT P6SM SCT008 BKN015
     FM271800 35015KT P6SM BKN045=

USA.gov is the U.S. government's official web portal to all federal, state and local government web resources and services.